createdAt,value
2019-03-22T00:02:02.702Z,2.96
2019-03-22T00:04:33.555Z,2.85
2019-03-22T00:07:04.413Z,2.70
2019-03-22T00:09:35.050Z,2.60
2019-03-22T00:12:06.050Z,2.50
2019-03-22T00:14:37.129Z,2.42
2019-03-22T00:17:07.940Z,2.29
2019-03-22T00:19:38.796Z,2.22
2019-03-22T00:22:09.550Z,2.17
2019-03-22T00:24:40.186Z,2.23
2019-03-22T00:27:16.399Z,2.12
2019-03-22T00:29:41.899Z,1.99
2019-03-22T00:32:12.668Z,1.94
2019-03-22T00:34:43.305Z,1.85
2019-03-22T00:37:14.177Z,1.78
2019-03-22T00:39:45.031Z,1.82
2019-03-22T00:42:15.784Z,1.83
2019-03-22T00:44:46.436Z,1.79
2019-03-22T00:47:17.298Z,1.71
2019-03-22T00:49:48.047Z,1.68
2019-03-22T00:52:18.798Z,1.62
2019-03-22T00:54:49.654Z,1.52
2019-03-22T00:57:28.370Z,1.49
2019-03-22T00:59:52.479Z,1.37
2019-03-22T01:02:23.191Z,1.28
2019-03-22T01:04:53.900Z,1.26
2019-03-22T01:07:24.755Z,1.25
2019-03-22T01:09:55.393Z,1.27
2019-03-22T01:12:26.143Z,1.32
2019-03-22T01:14:57.019Z,1.30
2019-03-22T01:17:27.876Z,1.34
2019-03-22T01:19:58.627Z,1.34
2019-03-22T01:22:29.280Z,1.45
2019-03-22T01:25:01.568Z,1.42
2019-03-22T01:27:40.215Z,1.50
2019-03-22T01:30:09.309Z,1.56
2019-03-22T01:32:40.170Z,1.44
2019-03-22T01:35:11.025Z,1.46
2019-03-22T01:37:41.680Z,1.57
2019-03-22T01:40:13.131Z,1.55
2019-03-22T01:42:43.494Z,1.50
2019-03-22T01:45:15.238Z,1.56
2019-03-22T01:47:45.720Z,1.52
2019-03-22T01:50:17.262Z,1.48
2019-03-22T01:52:47.633Z,1.63
2019-03-22T01:55:18.387Z,1.76
2019-03-22T01:57:53.713Z,1.87
2019-03-22T02:00:21.228Z,1.95
2019-03-22T02:02:52.061Z,1.98
2019-03-22T02:05:22.715Z,1.95
2019-03-22T02:07:53.485Z,1.99
2019-03-22T02:10:24.137Z,2.04
2019-03-22T02:12:56.119Z,2.17
2019-03-22T02:15:26.978Z,2.20
2019-03-22T02:17:57.712Z,2.20
2019-03-22T02:20:28.361Z,2.26
2019-03-22T02:22:58.329Z,2.26
2019-03-22T02:25:28.742Z,2.33
2019-03-22T02:28:04.113Z,2.34
2019-03-22T02:30:31.820Z,2.33
2019-03-22T02:33:02.658Z,2.27
2019-03-22T02:35:33.437Z,2.26
2019-03-22T02:38:04.177Z,2.28
2019-03-22T02:40:34.924Z,2.33
2019-03-22T02:43:05.671Z,2.33
2019-03-22T02:45:36.315Z,2.32
2019-03-22T02:48:07.081Z,2.33
2019-03-22T02:50:37.944Z,2.32
2019-03-22T02:53:08.794Z,2.32
2019-03-22T02:55:39.546Z,2.32
2019-03-22T02:58:20.692Z,2.28
2019-03-22T03:00:42.386Z,2.28
2019-03-22T03:03:13.246Z,2.32
2019-03-22T03:05:43.900Z,2.39
2019-03-22T03:08:14.549Z,2.36
2019-03-22T03:10:45.416Z,2.37
2019-03-22T03:13:17.283Z,2.48
2019-03-22T03:15:48.015Z,2.48
2019-03-22T03:18:18.787Z,2.44
2019-03-22T03:20:49.418Z,2.46
2019-03-22T03:23:20.193Z,2.39
2019-03-22T03:25:50.828Z,2.41
2019-03-22T03:28:35.699Z,2.42
2019-03-22T03:30:53.683Z,2.46
2019-03-22T03:33:23.740Z,2.68
2019-03-22T03:35:54.267Z,2.66
2019-03-22T03:38:24.329Z,2.69
2019-03-22T03:40:54.954Z,2.71
2019-03-22T03:43:25.711Z,2.75
2019-03-22T03:45:56.567Z,2.68
2019-03-22T03:48:27.305Z,2.66
2019-03-22T03:50:58.079Z,2.74
2019-03-22T03:53:28.727Z,2.85
2019-03-22T03:55:59.581Z,2.72
2019-03-22T03:58:30.334Z,2.79
2019-03-22T04:01:01.089Z,2.79
2019-03-22T04:03:31.625Z,2.77
2019-03-22T04:06:03.119Z,2.77
2019-03-22T04:08:33.460Z,2.73
2019-03-22T04:11:03.520Z,2.80
2019-03-22T04:13:34.944Z,2.80
2019-03-22T04:16:05.818Z,2.87
2019-03-22T04:18:36.455Z,2.93
2019-03-22T04:21:06.528Z,2.90
2019-03-22T04:23:37.056Z,2.97
2019-03-22T04:26:07.707Z,3.03
2019-03-22T04:28:38.445Z,3.15
2019-03-22T04:31:09.207Z,3.25
2019-03-22T04:33:39.853Z,3.26
2019-03-22T04:36:10.515Z,3.34
2019-03-22T04:38:40.476Z,3.34
2019-03-22T04:41:11.205Z,3.39
2019-03-22T04:43:41.860Z,3.48
2019-03-22T04:46:12.493Z,3.51
2019-03-22T04:48:43.246Z,3.57
2019-03-22T04:51:13.895Z,3.72
2019-03-22T04:53:45.779Z,3.86
2019-03-22T04:56:16.916Z,3.85
2019-03-22T04:58:47.406Z,3.82
2019-03-22T05:01:18.977Z,3.84
2019-03-22T05:03:49.820Z,3.81
2019-03-22T05:06:20.586Z,3.86
2019-03-22T05:08:51.340Z,3.97
2019-03-22T05:11:21.993Z,3.94
2019-03-22T05:13:53.871Z,3.81
2019-03-22T05:16:24.729Z,3.82
2019-03-22T05:18:55.360Z,3.86
2019-03-22T05:21:26.012Z,4.01
2019-03-22T05:23:56.088Z,4.02
2019-03-22T05:26:27.338Z,4.14
2019-03-22T05:28:57.679Z,4.21
2019-03-22T05:31:31.588Z,4.34
2019-03-22T05:34:02.358Z,4.44
2019-03-22T05:36:33.109Z,4.47
2019-03-22T05:39:05.497Z,4.46
2019-03-22T05:41:36.462Z,4.44
2019-03-22T05:44:07.218Z,4.51
2019-03-22T05:46:37.744Z,4.66
2019-03-22T05:49:08.495Z,4.78
2019-03-22T05:51:39.253Z,4.75
2019-03-22T05:54:10.022Z,4.87
2019-03-22T05:56:40.673Z,4.96
2019-03-22T05:59:11.531Z,5.02
2019-03-22T06:01:42.285Z,4.94
2019-03-22T06:04:13.039Z,5.00
2019-03-22T06:06:43.692Z,5.18
2019-03-22T06:09:14.547Z,5.57
2019-03-22T06:11:45.178Z,5.78
2019-03-22T06:14:16.873Z,5.81
2019-03-22T06:16:47.507Z,5.73
2019-03-22T06:19:18.275Z,5.90
2019-03-22T06:21:49.131Z,5.94
2019-03-22T06:24:22.213Z,6.21
2019-03-22T06:26:52.178Z,6.30
2019-03-22T06:29:22.826Z,6.37
2019-03-22T06:31:53.684Z,6.59
2019-03-22T06:34:24.322Z,6.95
2019-03-22T06:36:54.967Z,7.15
2019-03-22T06:39:25.739Z,7.28
2019-03-22T06:41:56.594Z,7.31
2019-03-22T06:44:27.333Z,7.17
2019-03-22T06:46:58.103Z,7.59
2019-03-22T06:49:28.859Z,7.30
2019-03-22T06:51:59.508Z,7.11
2019-03-22T06:54:31.748Z,6.95
2019-03-22T06:57:02.958Z,6.83
2019-03-22T06:59:33.610Z,6.80
2019-03-22T07:02:04.465Z,7.23
2019-03-22T07:04:35.232Z,7.73
2019-03-22T07:07:05.977Z,7.91
2019-03-22T07:09:36.713Z,8.19
2019-03-22T07:12:07.576Z,8.36
2019-03-22T07:14:38.338Z,8.19
2019-03-22T07:17:08.791Z,7.97
2019-03-22T07:19:38.631Z,8.43
2019-03-22T07:22:09.158Z,8.69
2019-03-22T07:24:40.639Z,8.52
2019-03-22T07:27:11.088Z,8.75
2019-03-22T07:29:42.130Z,8.63
2019-03-22T07:32:13.002Z,9.04
2019-03-22T07:34:43.861Z,9.22
2019-03-22T07:37:14.612Z,9.55
2019-03-22T07:39:45.144Z,9.93
2019-03-22T07:42:17.586Z,9.60
2019-03-22T07:44:48.204Z,9.62
2019-03-22T07:47:18.937Z,9.95
2019-03-22T07:49:49.606Z,9.99
2019-03-22T07:52:20.467Z,9.99
2019-03-22T07:54:51.098Z,10.27
2019-03-22T07:57:21.873Z,10.30
2019-03-22T07:59:52.525Z,10.29
2019-03-22T08:02:25.525Z,10.50
2019-03-22T08:04:55.877Z,10.32
2019-03-22T08:07:26.623Z,10.12
2019-03-22T08:09:57.465Z,9.84
2019-03-22T08:12:28.442Z,10.26
2019-03-22T08:15:00.384Z,10.15
2019-03-22T08:17:31.296Z,10.69
2019-03-22T08:20:11.309Z,10.92
2019-03-22T08:22:41.989Z,11.01
2019-03-22T08:25:15.503Z,10.98
2019-03-22T08:27:46.246Z,11.11
2019-03-22T08:30:28.660Z,11.47
2019-03-22T08:32:58.998Z,11.53
2019-03-22T08:35:29.675Z,11.69
2019-03-22T08:38:00.730Z,11.57
2019-03-22T08:40:31.487Z,11.42
2019-03-22T08:43:02.340Z,11.65
2019-03-22T08:45:33.198Z,11.91
2019-03-22T08:48:03.982Z,11.99
2019-03-22T08:50:34.684Z,11.95
2019-03-22T08:53:05.605Z,12.11
2019-03-22T08:55:36.416Z,11.97
2019-03-22T08:58:07.151Z,12.41
2019-03-22T09:00:39.626Z,12.03
2019-03-22T09:03:10.139Z,11.87
2019-03-22T09:05:40.889Z,11.77
2019-03-22T09:08:11.517Z,11.56
2019-03-22T09:10:42.503Z,11.63
2019-03-22T09:13:13.337Z,12.07
2019-03-22T09:15:45.018Z,12.26
2019-03-22T09:18:15.929Z,12.36
2019-03-22T09:20:46.724Z,12.65
2019-03-22T09:23:17.575Z,12.39
2019-03-22T09:25:48.013Z,12.51
2019-03-22T09:28:18.784Z,12.48
2019-03-22T09:30:49.628Z,12.35
2019-03-22T09:33:20.522Z,12.14
2019-03-22T09:35:51.404Z,11.40
2019-03-22T09:38:22.197Z,11.41
2019-03-22T09:40:52.850Z,11.79
2019-03-22T09:43:23.807Z,11.64
2019-03-22T09:45:54.566Z,11.84
2019-03-22T09:48:25.747Z,11.93
2019-03-22T09:50:56.694Z,12.21
2019-03-22T09:53:30.307Z,12.21
2019-03-22T09:55:59.726Z,12.38
2019-03-22T09:58:30.583Z,11.83
2019-03-22T10:01:01.299Z,11.86
2019-03-22T10:03:31.990Z,12.21
2019-03-22T10:06:02.827Z,12.20
2019-03-22T10:08:35.234Z,12.22
2019-03-22T10:11:06.129Z,11.96
2019-03-22T10:13:37.505Z,11.90
2019-03-22T10:16:09.279Z,11.71
2019-03-22T10:18:40.097Z,11.63
2019-03-22T10:21:21.948Z,11.57
2019-03-22T10:23:43.585Z,11.67
2019-03-22T10:26:14.002Z,11.73
2019-03-22T10:28:44.841Z,11.76
2019-03-22T10:31:15.701Z,11.79
2019-03-22T10:33:47.996Z,11.73
2019-03-22T10:36:18.059Z,11.45
2019-03-22T10:38:50.440Z,11.62
2019-03-22T10:41:20.556Z,11.42
2019-03-22T10:43:51.329Z,11.36
2019-03-22T10:46:22.120Z,11.47
2019-03-22T10:48:53.066Z,11.69
2019-03-22T10:51:23.834Z,11.87
2019-03-22T10:53:54.670Z,11.85
2019-03-22T10:56:25.593Z,11.99
2019-03-22T10:58:56.344Z,12.10
2019-03-22T11:01:27.101Z,12.05
2019-03-22T11:03:58.566Z,11.81
2019-03-22T11:06:28.997Z,11.53
2019-03-22T11:08:59.648Z,11.34
2019-03-22T11:11:30.520Z,11.25
2019-03-22T11:14:01.383Z,11.26
2019-03-22T11:16:33.137Z,11.31
2019-03-22T11:19:04.300Z,11.34
2019-03-22T11:21:34.955Z,11.41
2019-03-22T11:24:05.827Z,11.42
2019-03-22T11:26:36.581Z,11.40
2019-03-22T11:29:07.234Z,11.18
2019-03-22T11:31:40.232Z,11.14
2019-03-22T11:34:22.562Z,10.99
2019-03-22T15:18:40.004Z,9.97
2019-03-22T15:21:31.747Z,9.85
2019-03-22T15:24:20.294Z,9.80
2019-03-22T15:26:59.533Z,9.65
2019-03-22T15:29:31.934Z,9.64
2019-03-22T15:32:07.907Z,9.66
2019-03-22T15:34:39.977Z,9.59
2019-03-22T15:37:15.441Z,9.63
2019-03-22T15:39:48.342Z,9.50
2019-03-22T15:42:19.301Z,9.41
2019-03-22T15:44:49.875Z,9.34
2019-03-22T15:47:20.808Z,9.33
2019-03-22T15:49:51.456Z,9.43
2019-03-22T15:52:22.931Z,9.41
2019-03-22T15:54:54.451Z,9.40
2019-03-22T15:57:25.870Z,9.44
2019-03-22T15:59:56.416Z,9.41
2019-03-22T16:02:27.523Z,9.39
2019-03-22T16:05:00.975Z,9.37
2019-03-22T16:07:31.830Z,9.40
2019-03-22T16:10:02.703Z,9.55
2019-03-22T16:12:33.440Z,9.52
2019-03-22T16:15:11.661Z,9.62
2019-03-22T16:17:42.533Z,7.10
2019-03-22T16:20:14.481Z,5.33
2019-03-22T16:22:45.456Z,4.95
2019-03-22T16:25:15.814Z,4.59
2019-03-22T16:27:45.766Z,4.31
2019-03-22T16:30:16.300Z,4.00
2019-03-22T16:32:46.951Z,3.82
2019-03-22T16:35:17.609Z,3.74
2019-03-22T16:37:48.284Z,3.58
2019-03-22T16:40:24.091Z,3.49
2019-03-22T16:42:50.991Z,3.44
2019-03-22T16:45:40.563Z,3.52
2019-03-22T16:48:11.299Z,3.55
2019-03-22T16:50:42.281Z,3.59
2019-03-22T16:53:12.810Z,3.58
2019-03-22T16:55:43.565Z,3.55
2019-03-22T16:58:14.333Z,3.58
2019-03-22T17:00:44.984Z,3.60
2019-03-22T17:03:15.641Z,3.57
2019-03-22T17:05:46.272Z,3.60
2019-03-22T17:08:16.822Z,3.59
2019-03-22T17:10:46.901Z,3.59
2019-03-22T17:13:17.514Z,3.63
2019-03-22T17:15:48.057Z,3.59
2019-03-22T17:18:18.138Z,3.63
2019-03-22T17:20:49.582Z,3.57
2019-03-22T17:23:20.337Z,3.61
2019-03-22T17:25:50.868Z,3.58
2019-03-22T17:28:20.950Z,3.58
2019-03-22T17:30:51.479Z,3.58
2019-03-22T17:33:22.007Z,3.59
2019-03-22T17:35:52.085Z,3.58
2019-03-22T17:38:22.616Z,3.60
2019-03-22T17:40:53.263Z,3.55
2019-03-22T17:43:23.897Z,3.60
2019-03-22T17:45:53.975Z,3.59
2019-03-22T17:48:24.380Z,3.63
2019-03-22T17:50:54.247Z,3.62
2019-03-22T17:53:24.781Z,3.52
2019-03-22T17:55:54.844Z,3.52
2019-03-22T17:58:25.250Z,3.59
2019-03-22T18:00:55.218Z,3.62
2019-03-22T18:03:25.638Z,3.61
2019-03-22T18:05:55.601Z,3.58
2019-03-22T18:08:26.133Z,3.54
2019-03-22T18:10:56.197Z,3.51
2019-03-22T18:13:27.348Z,3.50
2019-03-22T18:15:58.190Z,3.60
2019-03-22T18:18:27.948Z,3.60
2019-03-22T18:20:59.375Z,3.66
2019-03-22T18:23:35.711Z,3.62
2019-03-22T18:26:02.437Z,3.65
2019-03-22T18:28:33.188Z,3.63
2019-03-22T18:31:04.045Z,3.59
2019-03-22T18:33:34.695Z,3.65
2019-03-22T18:36:05.227Z,3.72
2019-03-22T18:38:35.306Z,3.66
2019-03-22T18:41:05.833Z,3.73
2019-03-22T18:43:36.482Z,3.72
2019-03-22T18:46:07.014Z,3.82
2019-03-22T18:48:37.582Z,3.80
2019-03-22T18:51:08.133Z,3.83
2019-03-22T18:53:38.198Z,3.80
2019-03-22T18:56:08.598Z,3.76
2019-03-22T18:58:39.147Z,3.86
2019-03-22T19:01:09.015Z,3.89
2019-03-22T19:03:39.431Z,3.82
2019-03-22T19:06:10.097Z,3.83
2019-03-22T19:08:40.050Z,3.73
2019-03-22T19:11:10.583Z,3.82
2019-03-22T19:13:40.644Z,3.87
2019-03-22T19:16:11.050Z,3.92
2019-03-22T19:18:41.130Z,3.89
2019-03-22T19:21:12.459Z,3.79
2019-03-22T19:23:42.918Z,3.79
2019-03-22T19:26:13.467Z,3.72
2019-03-22T19:28:43.534Z,3.71
2019-03-22T19:31:13.954Z,3.74
2019-03-22T19:33:44.824Z,3.77
2019-03-22T19:36:14.950Z,3.76
2019-03-22T19:38:45.017Z,3.74
2019-03-22T19:41:16.951Z,3.82
2019-03-22T19:43:47.516Z,3.82
2019-03-22T19:46:18.048Z,3.74
2019-03-22T19:48:48.130Z,3.73
2019-03-22T19:51:18.535Z,3.79
2019-03-22T19:53:48.615Z,3.74
2019-03-22T19:56:19.141Z,3.73
2019-03-22T19:58:49.795Z,3.69
2019-03-22T20:01:20.442Z,3.76
2019-03-22T20:03:51.199Z,3.75
2019-03-22T20:06:21.541Z,3.74
2019-03-22T20:08:51.390Z,3.65
2019-03-22T20:11:22.175Z,3.55
2019-03-22T20:13:52.661Z,3.59
2019-03-22T20:16:22.428Z,3.53
2019-03-22T20:18:52.963Z,3.52
2019-03-22T20:21:24.531Z,3.52
2019-03-22T20:23:55.267Z,3.50
2019-03-22T20:26:25.817Z,3.43
2019-03-22T20:28:56.384Z,3.39
2019-03-22T20:31:26.447Z,3.40
2019-03-22T20:33:56.953Z,3.44
2019-03-22T20:36:26.819Z,3.39
2019-03-22T20:38:57.354Z,3.37
2019-03-22T20:41:28.007Z,3.32
2019-03-22T20:43:57.968Z,3.35
2019-03-22T20:46:28.493Z,3.30
2019-03-22T20:48:59.145Z,3.27
2019-03-22T20:51:29.796Z,3.25
2019-03-22T20:54:00.446Z,3.29
2019-03-22T20:56:30.977Z,3.31
2019-03-22T20:59:00.944Z,3.40
2019-03-22T21:01:31.479Z,3.43
2019-03-22T21:04:01.439Z,3.37
2019-03-22T21:06:31.985Z,3.33
2019-03-22T21:09:01.940Z,3.30
2019-03-22T21:11:32.452Z,3.32
2019-03-22T21:14:02.513Z,3.32
2019-03-22T21:16:32.917Z,3.35
2019-03-22T21:19:02.996Z,3.38
2019-03-22T21:21:36.573Z,3.43
2019-03-22T21:24:05.502Z,3.45
2019-03-22T21:26:35.351Z,3.51
2019-03-22T21:29:05.765Z,3.49
2019-03-22T21:31:35.844Z,3.56
2019-03-22T21:34:06.325Z,3.55
2019-03-22T21:36:37.022Z,3.62
2019-03-22T21:39:07.187Z,3.61
2019-03-22T21:41:37.386Z,3.62
2019-03-22T21:44:07.465Z,3.66
2019-03-22T21:46:37.992Z,3.64
2019-03-22T21:49:07.942Z,3.73
2019-03-22T21:51:38.474Z,3.76
2019-03-22T21:54:08.427Z,3.69
2019-03-22T21:56:40.291Z,3.64
2019-03-22T21:59:10.737Z,3.64
2019-03-22T22:01:41.387Z,3.63
2019-03-22T22:04:12.041Z,3.69
2019-03-22T22:06:42.691Z,3.71
2019-03-22T22:09:12.652Z,3.73
2019-03-22T22:11:43.059Z,3.76
2019-03-22T22:14:13.137Z,3.75
2019-03-22T22:16:43.659Z,3.77
2019-03-22T22:19:14.316Z,3.87
2019-03-22T22:21:44.844Z,3.94
2019-03-22T22:24:15.627Z,3.90
2019-03-22T22:26:46.284Z,4.00
2019-03-22T22:29:16.921Z,3.93
2019-03-22T22:31:47.570Z,3.90
2019-03-22T22:34:17.532Z,3.83
2019-03-22T22:36:48.058Z,3.74
2019-03-22T22:39:18.016Z,3.72
2019-03-22T22:41:48.423Z,3.65
2019-03-22T22:44:18.307Z,3.64
2019-03-22T22:46:48.358Z,3.61
2019-03-22T22:49:18.694Z,3.55
2019-03-22T22:51:49.010Z,3.55
2019-03-22T22:54:19.427Z,3.61
2019-03-22T22:56:49.509Z,3.64
2019-03-22T22:59:20.032Z,3.63
2019-03-22T23:01:49.986Z,3.61
2019-03-22T23:04:20.399Z,3.58
2019-03-22T23:06:51.069Z,3.62
2019-03-22T23:09:21.823Z,3.62
2019-03-22T23:11:52.574Z,3.59
2019-03-22T23:14:23.208Z,3.69
2019-03-22T23:16:53.178Z,3.74
2019-03-22T23:19:23.712Z,3.76
2019-03-22T23:21:54.361Z,3.82
2019-03-22T23:24:25.013Z,3.75
2019-03-22T23:26:55.666Z,3.74
2019-03-22T23:29:26.203Z,3.71
2019-03-22T23:31:56.178Z,3.71
2019-03-22T23:34:26.579Z,3.70
2019-03-22T23:36:56.661Z,3.71
2019-03-22T23:39:27.083Z,3.71
2019-03-22T23:41:57.821Z,3.63
2019-03-22T23:44:28.692Z,3.62
2019-03-22T23:46:59.345Z,3.53
2019-03-22T23:49:29.308Z,3.52
2019-03-22T23:51:59.828Z,3.48
2019-03-22T23:54:30.366Z,3.46
2019-03-22T23:57:00.931Z,3.43
2019-03-22T23:59:31.482Z,3.45
